sensor_id;sensor_type;location;lat;lon;timestamp;temperature;humidity
14779;DHT22;7481;53.750;10.570;2022-11-14T03:27:13;8.30;99.90
14779;DHT22;7481;53.750;10.570;2022-11-14T03:35:35;7.80;99.90
14779;DHT22;7481;53.750;10.570;2022-11-14T03:38:22;8.10;99.90
14779;DHT22;7481;53.750;10.570;2022-11-14T03:41:09;8.10;99.90
14779;DHT22;7481;53.750;10.570;2022-11-14T03:43:56;8.00;99.90
14779;DHT22;7481;53.750;10.570;2022-11-14T03:46:43;8.00;99.90
14779;DHT22;7481;53.750;10.570;2022-11-14T03:49:30;7.90;99.90
14779;DHT22;7481;53.750;10.570;2022-11-14T03:52:17;8.00;99.90
14779;DHT22;7481;53.750;10.570;2022-11-14T03:55:04;8.00;99.90
14779;DHT22;7481;53.750;10.570;2022-11-14T03:57:52;8.00;99.90
14779;DHT22;7481;53.750;10.570;2022-11-14T04:00:38;8.00;99.90
14779;DHT22;7481;53.750;10.570;2022-11-14T04:03:26;7.90;99.90
14779;DHT22;7481;53.750;10.570;2022-11-14T04:06:12;8.10;99.90
14779;DHT22;7481;53.750;10.570;2022-11-14T04:09:01;8.00;99.90
14779;DHT22;7481;53.750;10.570;2022-11-14T04:11:47;8.00;99.90
14779;DHT22;7481;53.750;10.570;2022-11-14T04:14:34;8.00;99.90
14779;DHT22;7481;53.750;10.570;2022-11-14T04:17:21;8.00;99.90
14779;DHT22;7481;53.750;10.570;2022-11-14T04:20:09;8.00;99.90
14779;DHT22;7481;53.750;10.570;2022-11-14T04:22:56;8.00;99.90
14779;DHT22;7481;53.750;10.570;2022-11-14T04:25:45;7.90;99.90
14779;DHT22;7481;53.750;10.570;2022-11-14T04:28:32;7.90;99.90
14779;DHT22;7481;53.750;10.570;2022-11-14T04:31:19;7.90;99.90
14779;DHT22;7481;53.750;10.570;2022-11-14T04:34:06;7.90;99.90
14779;DHT22;7481;53.750;10.570;2022-11-14T04:36:53;7.90;99.90
14779;DHT22;7481;53.750;10.570;2022-11-14T04:39:40;7.90;99.90
14779;DHT22;7481;53.750;10.570;2022-11-14T04:45:14;8.00;99.90
14779;DHT22;7481;53.750;10.570;2022-11-14T05:41:52;7.60;99.90
14779;DHT22;7481;53.750;10.570;2022-11-14T05:44:39;7.60;99.90
14779;DHT22;7481;53.750;10.570;2022-11-14T05:47:26;7.60;99.90
14779;DHT22;7481;53.750;10.570;2022-11-14T05:50:13;7.50;99.90
14779;DHT22;7481;53.750;10.570;2022-11-14T05:53:02;7.60;99.90
14779;DHT22;7481;53.750;10.570;2022-11-14T05:55:49;7.60;99.90
14779;DHT22;7481;53.750;10.570;2022-11-14T05:58:36;7.50;99.90
14779;DHT22;7481;53.750;10.570;2022-11-14T06:01:23;7.50;99.90
14779;DHT22;7481;53.750;10.570;2022-11-14T06:04:12;7.50;99.90
14779;DHT22;7481;53.750;10.570;2022-11-14T06:06:59;7.50;99.90
14779;DHT22;7481;53.750;10.570;2022-11-14T06:09:46;7.50;99.90
14779;DHT22;7481;53.750;10.570;2022-11-14T06:12:33;7.50;99.90
14779;DHT22;7481;53.750;10.570;2022-11-14T06:21:02;7.40;99.90
14779;DHT22;7481;53.750;10.570;2022-11-14T06:23:50;7.40;99.90
14779;DHT22;7481;53.750;10.570;2022-11-14T06:26:37;7.40;99.90
14779;DHT22;7481;53.750;10.570;2022-11-14T06:29:24;7.40;99.90
14779;DHT22;7481;53.750;10.570;2022-11-14T06:32:11;7.40;99.90
14779;DHT22;7481;53.750;10.570;2022-11-14T06:34:58;7.40;99.90
14779;DHT22;7481;53.750;10.570;2022-11-14T06:37:45;7.40;99.90
14779;DHT22;7481;53.750;10.570;2022-11-14T06:40:32;7.40;99.90
14779;DHT22;7481;53.750;10.570;2022-11-14T06:43:18;7.40;99.90
14779;DHT22;7481;53.750;10.570;2022-11-14T06:46:07;7.40;99.90
14779;DHT22;7481;53.750;10.570;2022-11-14T06:48:55;7.40;99.90
14779;DHT22;7481;53.750;10.570;2022-11-14T06:51:41;7.40;99.90
14779;DHT22;7481;53.750;10.570;2022-11-14T06:54:28;7.40;99.90
14779;DHT22;7481;53.750;10.570;2022-11-14T06:57:15;7.30;99.90
14779;DHT22;7481;53.750;10.570;2022-11-14T07:00:03;7.30;99.90
14779;DHT22;7481;53.750;10.570;2022-11-14T07:02:50;7.20;99.90
14779;DHT22;7481;53.750;10.570;2022-11-14T07:05:39;7.30;99.90
14779;DHT22;7481;53.750;10.570;2022-11-14T07:08:27;7.30;99.90
14779;DHT22;7481;53.750;10.570;2022-11-14T07:11:16;7.30;99.90
14779;DHT22;7481;53.750;10.570;2022-11-14T07:14:11;7.30;99.90
14779;DHT22;7481;53.750;10.570;2022-11-14T07:16:58;7.30;99.90
14779;DHT22;7481;53.750;10.570;2022-11-14T07:19:46;7.20;99.90
14779;DHT22;7481;53.750;10.570;2022-11-14T07:22:33;7.20;99.90
14779;DHT22;7481;53.750;10.570;2022-11-14T07:39:18;7.30;99.90
14779;DHT22;7481;53.750;10.570;2022-11-14T07:42:05;7.20;99.90
14779;DHT22;7481;53.750;10.570;2022-11-14T07:44:52;7.20;99.90
14779;DHT22;7481;53.750;10.570;2022-11-14T07:50:27;7.20;99.90
14779;DHT22;7481;53.750;10.570;2022-11-14T07:53:15;7.20;99.90
14779;DHT22;7481;53.750;10.570;2022-11-14T07:56:05;7.20;99.90
14779;DHT22;7481;53.750;10.570;2022-11-14T07:58:52;7.20;99.90
14779;DHT22;7481;53.750;10.570;2022-11-14T08:01:39;7.20;99.90
14779;DHT22;7481;53.750;10.570;2022-11-14T08:10:03;6.80;99.90
14779;DHT22;7481;53.750;10.570;2022-11-14T08:13:01;7.20;99.90
14779;DHT22;7481;53.750;10.570;2022-11-14T08:18:59;7.20;99.90
14779;DHT22;7481;53.750;10.570;2022-11-14T08:21:47;7.20;99.90
14779;DHT22;7481;53.750;10.570;2022-11-14T08:27:22;7.30;99.90
14779;DHT22;7481;53.750;10.570;2022-11-14T08:30:10;7.40;99.90
14779;DHT22;7481;53.750;10.570;2022-11-14T08:33:00;7.40;99.90
14779;DHT22;7481;53.750;10.570;2022-11-14T08:35:48;7.90;99.90
14779;DHT22;7481;53.750;10.570;2022-11-14T08:38:35;7.30;99.90
14779;DHT22;7481;53.750;10.570;2022-11-14T08:41:23;7.30;99.90
14779;DHT22;7481;53.750;10.570;2022-11-14T08:44:09;7.40;99.90
14779;DHT22;7481;53.750;10.570;2022-11-14T08:46:56;7.30;99.90
14779;DHT22;7481;53.750;10.570;2022-11-14T08:49:45;7.20;99.90
14779;DHT22;7481;53.750;10.570;2022-11-14T09:03:45;7.40;99.90
14779;DHT22;7481;53.750;10.570;2022-11-14T09:06:33;7.50;99.90
14779;DHT22;7481;53.750;10.570;2022-11-14T09:09:20;8.60;99.90
14779;DHT22;7481;53.750;10.570;2022-11-14T09:12:07;7.40;99.90
14779;DHT22;7481;53.750;10.570;2022-11-14T09:14:54;7.50;99.90
14779;DHT22;7481;53.750;10.570;2022-11-14T09:17:41;7.40;99.90
14779;DHT22;7481;53.750;10.570;2022-11-14T09:20:28;7.50;99.90
14779;DHT22;7481;53.750;10.570;2022-11-14T09:54:24;7.90;99.90
14779;DHT22;7481;53.750;10.570;2022-11-14T09:57:17;7.90;99.90
14779;DHT22;7481;53.750;10.570;2022-11-14T10:00:17;7.90;99.90
14779;DHT22;7481;53.750;10.570;2022-11-14T10:09:52;8.10;99.90
14779;DHT22;7481;53.750;10.570;2022-11-14T10:15:53;8.30;99.90
14779;DHT22;7481;53.750;10.570;2022-11-14T10:18:45;8.30;99.90
14779;DHT22;7481;53.750;10.570;2022-11-14T10:21:37;8.20;99.90
14779;DHT22;7481;53.750;10.570;2022-11-14T10:27:27;8.30;99.90
14779;DHT22;7481;53.750;10.570;2022-11-14T10:30:17;8.40;99.90
14779;DHT22;7481;53.750;10.570;2022-11-14T10:36:11;8.50;99.90
14779;DHT22;7481;53.750;10.570;2022-11-14T10:39:08;8.70;99.90
14779;DHT22;7481;53.750;10.570;2022-11-14T10:42:02;8.70;99.90
14779;DHT22;7481;53.750;10.570;2022-11-14T10:45:05;8.70;99.90
14779;DHT22;7481;53.750;10.570;2022-11-14T10:48:01;8.80;99.90
14779;DHT22;7481;53.750;10.570;2022-11-14T10:50:57;8.90;99.90
14779;DHT22;7481;53.750;10.570;2022-11-14T10:56:52;9.10;99.90
14779;DHT22;7481;53.750;10.570;2022-11-14T10:59:40;9.10;99.90
14779;DHT22;7481;53.750;10.570;2022-11-14T11:02:47;9.20;99.90
14779;DHT22;7481;53.750;10.570;2022-11-14T11:05:49;9.40;99.90
14779;DHT22;7481;53.750;10.570;2022-11-14T11:08:43;9.60;99.90
14779;DHT22;7481;53.750;10.570;2022-11-14T11:12:00;9.60;99.90
14779;DHT22;7481;53.750;10.570;2022-11-14T11:15:07;9.70;99.90
14779;DHT22;7481;53.750;10.570;2022-11-14T11:20:43;9.80;99.90
14779;DHT22;7481;53.750;10.570;2022-11-14T11:23:31;9.90;99.90
14779;DHT22;7481;53.750;10.570;2022-11-14T11:26:25;10.10;99.90
14779;DHT22;7481;53.750;10.570;2022-11-14T11:32:00;10.40;99.90
14779;DHT22;7481;53.750;10.570;2022-11-14T11:34:47;10.50;99.90
14779;DHT22;7481;53.750;10.570;2022-11-14T11:37:44;10.50;99.90
14779;DHT22;7481;53.750;10.570;2022-11-14T11:40:32;10.30;99.90
14779;DHT22;7481;53.750;10.570;2022-11-14T11:52:46;10.20;99.90
14779;DHT22;7481;53.750;10.570;2022-11-14T11:55:50;10.10;99.90
14779;DHT22;7481;53.750;10.570;2022-11-14T11:58:44;10.10;99.90
14779;DHT22;7481;53.750;10.570;2022-11-14T12:01:32;10.00;99.90
14779;DHT22;7481;53.750;10.570;2022-11-14T12:04:19;9.70;99.90
14779;DHT22;7481;53.750;10.570;2022-11-14T12:07:15;9.80;99.90
14779;DHT22;7481;53.750;10.570;2022-11-14T12:10:22;9.80;99.90
14779;DHT22;7481;53.750;10.570;2022-11-14T12:13:36;9.80;99.90
14779;DHT22;7481;53.750;10.570;2022-11-14T12:16:58;9.80;99.90
14779;DHT22;7481;53.750;10.570;2022-11-14T12:32:04;9.90;99.90
14779;DHT22;7481;53.750;10.570;2022-11-14T12:34:52;9.90;99.90
14779;DHT22;7481;53.750;10.570;2022-11-14T12:37:44;9.90;99.90
14779;DHT22;7481;53.750;10.570;2022-11-14T12:40:39;9.90;99.90
14779;DHT22;7481;53.750;10.570;2022-11-14T12:43:38;9.90;99.90
14779;DHT22;7481;53.750;10.570;2022-11-14T12:46:26;9.90;99.90
14779;DHT22;7481;53.750;10.570;2022-11-14T12:52:44;10.00;99.90
14779;DHT22;7481;53.750;10.570;2022-11-14T12:58:46;10.00;99.90
14779;DHT22;7481;53.750;10.570;2022-11-14T13:14:51;10.00;99.90
14779;DHT22;7481;53.750;10.570;2022-11-14T13:18:30;10.10;99.90
14779;DHT22;7481;53.750;10.570;2022-11-14T13:21:37;10.00;99.90
14779;DHT22;7481;53.750;10.570;2022-11-14T13:27:46;10.00;99.90
14779;DHT22;7481;53.750;10.570;2022-11-14T13:34:28;9.90;99.90
14779;DHT22;7481;53.750;10.570;2022-11-14T13:40:57;9.90;99.90
14779;DHT22;7481;53.750;10.570;2022-11-14T13:50:32;9.80;99.90
14779;DHT22;7481;53.750;10.570;2022-11-14T13:53:25;9.80;99.90
14779;DHT22;7481;53.750;10.570;2022-11-14T13:59:33;9.70;99.90
14779;DHT22;7481;53.750;10.570;2022-11-14T14:11:43;9.60;99.90
14779;DHT22;7481;53.750;10.570;2022-11-14T14:14:54;9.70;99.90
14779;DHT22;7481;53.750;10.570;2022-11-14T14:18:04;9.50;99.90
14779;DHT22;7481;53.750;10.570;2022-11-14T14:21:02;9.50;99.90
14779;DHT22;7481;53.750;10.570;2022-11-14T14:50:06;9.10;99.90
14779;DHT22;7481;53.750;10.570;2022-11-14T14:53:00;9.00;99.90
14779;DHT22;7481;53.750;10.570;2022-11-14T14:55:55;9.00;99.90
14779;DHT22;7481;53.750;10.570;2022-11-14T14:58:43;8.90;99.90
14779;DHT22;7481;53.750;10.570;2022-11-14T15:01:33;8.90;99.90
14779;DHT22;7481;53.750;10.570;2022-11-14T15:04:24;8.80;99.90
14779;DHT22;7481;53.750;10.570;2022-11-14T15:07:23;8.80;99.90
14779;DHT22;7481;53.750;10.570;2022-11-14T15:10:22;8.80;99.90
14779;DHT22;7481;53.750;10.570;2022-11-14T15:13:14;8.70;99.90
14779;DHT22;7481;53.750;10.570;2022-11-14T15:16:03;8.70;99.90
14779;DHT22;7481;53.750;10.570;2022-11-14T15:18:57;9.10;99.90
14779;DHT22;7481;53.750;10.570;2022-11-14T15:22:03;8.60;99.90
14779;DHT22;7481;53.750;10.570;2022-11-14T15:25:05;8.60;99.90
14779;DHT22;7481;53.750;10.570;2022-11-14T15:33:31;8.30;99.90
14779;DHT22;7481;53.750;10.570;2022-11-14T15:36:18;8.40;99.90
14779;DHT22;7481;53.750;10.570;2022-11-14T15:39:24;8.30;99.90
14779;DHT22;7481;53.750;10.570;2022-11-14T15:45:29;8.10;99.90
14779;DHT22;7481;53.750;10.570;2022-11-14T15:48:24;8.10;99.90
14779;DHT22;7481;53.750;10.570;2022-11-14T15:51:11;7.90;99.90
14779;DHT22;7481;53.750;10.570;2022-11-14T15:53:58;7.90;99.90
14779;DHT22;7481;53.750;10.570;2022-11-14T15:59:33;7.80;99.90
14779;DHT22;7481;53.750;10.570;2022-11-14T16:02:31;8.20;99.90
14779;DHT22;7481;53.750;10.570;2022-11-14T16:05:28;8.20;99.90
14779;DHT22;7481;53.750;10.570;2022-11-14T16:08:16;7.70;99.90
14779;DHT22;7481;53.750;10.570;2022-11-14T16:11:03;7.90;99.90
14779;DHT22;7481;53.750;10.570;2022-11-14T16:13:50;7.60;99.90
14779;DHT22;7481;53.750;10.570;2022-11-14T16:16:37;7.60;99.90
14779;DHT22;7481;53.750;10.570;2022-11-14T16:19:24;6.90;99.90
14779;DHT22;7481;53.750;10.570;2022-11-14T16:22:14;7.50;99.90
14779;DHT22;7481;53.750;10.570;2022-11-14T16:25:02;7.50;99.90
14779;DHT22;7481;53.750;10.570;2022-11-14T16:27:50;7.40;99.90
14779;DHT22;7481;53.750;10.570;2022-11-14T16:30:39;7.40;99.90
14779;DHT22;7481;53.750;10.570;2022-11-14T16:33:25;7.40;99.90
14779;DHT22;7481;53.750;10.570;2022-11-14T16:36:13;7.40;99.90
14779;DHT22;7481;53.750;10.570;2022-11-14T16:39:01;7.30;99.90
14779;DHT22;7481;53.750;10.570;2022-11-14T16:41:49;7.30;99.90
14779;DHT22;7481;53.750;10.570;2022-11-14T16:44:36;7.30;99.90
14779;DHT22;7481;53.750;10.570;2022-11-14T16:47:30;7.30;99.90
14779;DHT22;7481;53.750;10.570;2022-11-14T16:50:18;7.30;99.90
14779;DHT22;7481;53.750;10.570;2022-11-14T16:53:05;7.30;99.90
14779;DHT22;7481;53.750;10.570;2022-11-14T16:55:53;7.30;99.90
14779;DHT22;7481;53.750;10.570;2022-11-14T17:01:30;7.30;99.90
14779;DHT22;7481;53.750;10.570;2022-11-14T17:04:17;7.30;99.90
14779;DHT22;7481;53.750;10.570;2022-11-14T17:09:52;6.80;99.90
14779;DHT22;7481;53.750;10.570;2022-11-14T17:18:13;6.90;99.90
14779;DHT22;7481;53.750;10.570;2022-11-14T17:21:04;6.90;99.90
14779;DHT22;7481;53.750;10.570;2022-11-14T17:23:59;6.90;99.90
14779;DHT22;7481;53.750;10.570;2022-11-14T17:29:34;6.90;99.90
14779;DHT22;7481;53.750;10.570;2022-11-14T17:32:21;7.00;99.90
14779;DHT22;7481;53.750;10.570;2022-11-14T17:35:09;6.90;99.90
14779;DHT22;7481;53.750;10.570;2022-11-14T17:37:56;8.00;99.90
14779;DHT22;7481;53.750;10.570;2022-11-14T17:43:34;6.90;99.90
14779;DHT22;7481;53.750;10.570;2022-11-14T17:49:13;6.80;99.90
14779;DHT22;7481;53.750;10.570;2022-11-14T17:52:00;7.40;99.90
14779;DHT22;7481;53.750;10.570;2022-11-14T18:06:07;6.70;99.90
14779;DHT22;7481;53.750;10.570;2022-11-14T18:08:54;6.70;99.90
14779;DHT22;7481;53.750;10.570;2022-11-14T18:11:41;6.80;99.90
14779;DHT22;7481;53.750;10.570;2022-11-14T18:22:51;6.80;99.90
14779;DHT22;7481;53.750;10.570;2022-11-14T18:25:38;6.30;99.90
14779;DHT22;7481;53.750;10.570;2022-11-14T18:28:25;6.80;99.90
14779;DHT22;7481;53.750;10.570;2022-11-14T18:31:13;5.80;99.90
14779;DHT22;7481;53.750;10.570;2022-11-14T18:39:37;6.70;99.90
14779;DHT22;7481;53.750;10.570;2022-11-14T18:42:24;6.80;99.90
14779;DHT22;7481;53.750;10.570;2022-11-14T18:47:58;6.80;99.90
14779;DHT22;7481;53.750;10.570;2022-11-14T18:53:34;6.80;99.90
14779;DHT22;7481;53.750;10.570;2022-11-14T18:56:24;7.10;99.90
14779;DHT22;7481;53.750;10.570;2022-11-14T18:59:14;7.00;99.90
14779;DHT22;7481;53.750;10.570;2022-11-14T19:02:01;7.00;99.90
14779;DHT22;7481;53.750;10.570;2022-11-14T19:04:48;7.00;99.90
14779;DHT22;7481;53.750;10.570;2022-11-14T19:07:37;7.00;99.90
14779;DHT22;7481;53.750;10.570;2022-11-14T19:10:24;7.00;99.90
14779;DHT22;7481;53.750;10.570;2022-11-14T19:13:11;6.90;99.90
14779;DHT22;7481;53.750;10.570;2022-11-14T19:18:49;6.90;99.90
14779;DHT22;7481;53.750;10.570;2022-11-14T19:21:39;6.70;99.90
14779;DHT22;7481;53.750;10.570;2022-11-14T19:32:51;6.90;99.90
14779;DHT22;7481;53.750;10.570;2022-11-14T19:41:19;6.70;99.90
14779;DHT22;7481;53.750;10.570;2022-11-14T19:49:48;6.80;99.90
14779;DHT22;7481;53.750;10.570;2022-11-14T19:55:23;6.60;99.90
14779;DHT22;7481;53.750;10.570;2022-11-14T20:09:33;6.40;99.90
14779;DHT22;7481;53.750;10.570;2022-11-14T21:05:49;6.10;99.90
14779;DHT22;7481;53.750;10.570;2022-11-14T22:13:49;6.10;99.90
14779;DHT22;7481;53.750;10.570;2022-11-14T22:16:36;6.00;99.90
14779;DHT22;7481;53.750;10.570;2022-11-14T22:19:23;5.90;99.90
14779;DHT22;7481;53.750;10.570;2022-11-14T22:22:10;5.80;99.90
14779;DHT22;7481;53.750;10.570;2022-11-14T22:24:57;5.80;99.90
14779;DHT22;7481;53.750;10.570;2022-11-14T22:27:45;5.80;99.90
14779;DHT22;7481;53.750;10.570;2022-11-14T22:30:32;5.80;99.90
14779;DHT22;7481;53.750;10.570;2022-11-14T22:33:19;5.80;99.90
14779;DHT22;7481;53.750;10.570;2022-11-14T22:36:08;5.90;99.90
14779;DHT22;7481;53.750;10.570;2022-11-14T22:38:56;5.90;99.90
14779;DHT22;7481;53.750;10.570;2022-11-14T22:41:43;5.80;99.90
14779;DHT22;7481;53.750;10.570;2022-11-14T22:44:30;5.90;99.90
14779;DHT22;7481;53.750;10.570;2022-11-14T22:47:16;7.00;99.90
14779;DHT22;7481;53.750;10.570;2022-11-14T22:50:04;5.70;99.90
14779;DHT22;7481;53.750;10.570;2022-11-14T22:52:53;5.80;99.90
14779;DHT22;7481;53.750;10.570;2022-11-14T22:55:46;5.70;99.90
14779;DHT22;7481;53.750;10.570;2022-11-14T22:58:38;5.70;99.90
14779;DHT22;7481;53.750;10.570;2022-11-14T23:01:28;5.70;99.90
14779;DHT22;7481;53.750;10.570;2022-11-14T23:04:15;5.70;99.90
14779;DHT22;7481;53.750;10.570;2022-11-14T23:26:40;6.00;99.90
14779;DHT22;7481;53.750;10.570;2022-11-14T23:29:27;6.00;99.90
14779;DHT22;7481;53.750;10.570;2022-11-14T23:32:14;5.80;99.90
14779;DHT22;7481;53.750;10.570;2022-11-14T23:35:01;5.80;99.90
14779;DHT22;7481;53.750;10.570;2022-11-14T23:37:48;5.90;99.90
14779;DHT22;7481;53.750;10.570;2022-11-14T23:40:35;5.80;99.90
14779;DHT22;7481;53.750;10.570;2022-11-14T23:43:22;5.90;99.90
14779;DHT22;7481;53.750;10.570;2022-11-14T23:46:11;5.90;99.90
14779;DHT22;7481;53.750;10.570;2022-11-14T23:54:33;5.80;99.90
14779;DHT22;7481;53.750;10.570;2022-11-14T23:57:20;6.30;99.90
